Claude, Texas
Current Conditions -  °F | °C
As of 9:40 PM on Wednesday 22 Oct 2014 (Local Time) from KAMA Reporting Station
Overcast Overcast  
Wind Chill: 61°   Ceiling: 900
Heat Index: 61°   Visibility: 8mi
Dew Point: 59°   Wind: 15mph
Humidity: 93%   Direction: 160°SSE
Pressure: 30.12"   Gusts: NA
Location:  35.11°N, 101.36°W
Report Text: KAMA 230240Z 16013KT 8SM OVC009 16/15 A3012 RMK AO2 CIG 006V011 T01610150
Loading
Personal Weather Stations






























Interactive Weather Map
Tropical Storm Tracking
New forecast layout! Learn more

10-Day Weather Forecast

Advertisements
Track Severe Weather on mobile